createdAt,value
2019-01-24T00:00:08.328Z,1003.97
2019-01-24T00:01:08.290Z,1004.00
2019-01-24T00:02:08.275Z,1004.02
2019-01-24T00:03:08.270Z,1004.00
2019-01-24T00:04:08.256Z,1004.05
2019-01-24T00:05:08.247Z,1004.09
2019-01-24T00:06:08.282Z,1004.09
2019-01-24T00:07:08.255Z,1004.08
2019-01-24T00:08:08.239Z,1004.08
2019-01-24T00:09:08.214Z,1004.09
2019-01-24T00:10:08.194Z,1004.10
2019-01-24T00:11:08.183Z,1004.10
2019-01-24T00:12:08.195Z,1004.10
2019-01-24T00:13:08.194Z,1004.12
2019-01-24T00:14:08.144Z,1004.12
2019-01-24T00:15:08.155Z,1004.13
2019-01-24T00:16:08.171Z,1004.15
2019-01-24T00:17:08.142Z,1004.13
2019-01-24T00:18:08.121Z,1004.10
2019-01-24T00:19:08.130Z,1004.15
2019-01-24T00:20:08.100Z,1004.13
2019-01-24T00:21:08.092Z,1004.20
2019-01-24T00:22:08.070Z,1004.18
2019-01-24T00:23:08.082Z,1004.07
2019-01-24T00:24:08.086Z,1004.20
2019-01-24T00:25:08.027Z,1004.14
2019-01-24T00:26:08.054Z,1004.19
2019-01-24T00:27:08.036Z,1004.21
2019-01-24T00:28:08.054Z,1004.21
2019-01-24T00:29:08.003Z,1004.17
2019-01-24T00:30:07.984Z,1004.21
2019-01-24T00:31:07.988Z,1004.21
2019-01-24T00:32:07.981Z,1004.19
2019-01-24T00:33:07.968Z,1004.22
2019-01-24T00:34:07.939Z,1004.24
2019-01-24T00:35:07.936Z,1004.23
2019-01-24T00:36:07.967Z,1004.28
2019-01-24T00:37:07.906Z,1004.24
2019-01-24T00:38:07.915Z,1004.25
2019-01-24T00:39:07.883Z,1004.16
2019-01-24T00:40:07.911Z,1004.24
2019-01-24T00:41:07.878Z,1004.28
2019-01-24T00:42:07.853Z,1004.24
2019-01-24T00:43:07.848Z,1004.25
2019-01-24T00:44:07.824Z,1004.30
2019-01-24T00:45:07.816Z,1004.31
2019-01-24T00:46:07.824Z,1004.30
2019-01-24T00:47:07.796Z,1004.38
2019-01-24T00:48:07.789Z,1004.36
2019-01-24T00:49:07.789Z,1004.34
2019-01-24T00:50:07.768Z,1004.36
2019-01-24T00:51:07.773Z,1004.40
2019-01-24T00:52:07.748Z,1004.41
2019-01-24T00:53:07.772Z,1004.36
2019-01-24T00:54:07.729Z,1004.38
2019-01-24T00:55:07.726Z,1004.39
2019-01-24T00:56:07.704Z,1004.30
2019-01-24T00:57:07.738Z,1004.38
2019-01-24T00:58:07.709Z,1004.46
2019-01-24T00:59:07.752Z,1004.39
2019-01-24T01:00:07.677Z,1004.36
2019-01-24T01:01:07.652Z,1004.35
2019-01-24T01:02:07.640Z,1004.39
2019-01-24T01:03:07.640Z,1004.41
2019-01-24T01:04:07.626Z,1004.37
2019-01-24T01:05:07.639Z,1004.41
2019-01-24T01:06:07.612Z,1004.39
2019-01-24T01:07:07.591Z,1004.40
2019-01-24T01:08:07.596Z,1004.40
2019-01-24T01:09:07.559Z,1004.42
2019-01-24T01:10:07.557Z,1004.44
2019-01-24T01:11:07.542Z,1004.45
2019-01-24T01:12:07.534Z,1004.50
2019-01-24T01:13:07.550Z,1004.48
2019-01-24T01:14:07.518Z,1004.45
2019-01-24T01:15:07.506Z,1004.49
2019-01-24T01:16:07.491Z,1004.52
2019-01-24T01:17:07.522Z,1004.52
2019-01-24T01:18:07.497Z,1004.55
2019-01-24T01:19:07.476Z,1004.54
2019-01-24T01:20:07.452Z,1004.59
2019-01-24T01:21:07.442Z,1004.50
2019-01-24T01:22:07.428Z,1004.49
2019-01-24T01:23:07.444Z,1004.49
2019-01-24T01:24:07.408Z,1004.50
2019-01-24T01:25:07.408Z,1004.55
2019-01-24T01:26:07.407Z,1004.54
2019-01-24T01:27:07.387Z,1004.59
2019-01-24T01:28:07.414Z,1004.56
2019-01-24T01:29:07.373Z,1004.61
2019-01-24T01:30:07.337Z,1004.57
2019-01-24T01:31:07.350Z,1004.62
2019-01-24T01:32:07.366Z,1004.59
2019-01-24T01:33:07.449Z,1004.63
2019-01-24T01:34:07.464Z,1004.64
2019-01-24T01:35:07.335Z,1004.65
2019-01-24T01:36:07.281Z,1004.66
2019-01-24T01:37:07.268Z,1004.69
2019-01-24T01:38:07.263Z,1004.67
2019-01-24T01:39:07.290Z,1004.67
2019-01-24T01:40:07.235Z,1004.70
2019-01-24T01:41:07.240Z,1004.74
2019-01-24T01:42:07.211Z,1004.77
2019-01-24T01:43:07.201Z,1004.70
2019-01-24T01:44:07.219Z,1004.71
2019-01-24T01:45:07.189Z,1004.71
2019-01-24T01:46:07.178Z,1004.69
2019-01-24T01:47:07.166Z,1004.69
2019-01-24T01:48:07.148Z,1004.71
2019-01-24T01:49:07.195Z,1004.73
2019-01-24T01:50:07.146Z,1004.70
2019-01-24T01:51:07.120Z,1004.71
2019-01-24T01:52:07.113Z,1004.74
2019-01-24T01:53:07.103Z,1004.72
2019-01-24T01:54:07.123Z,1004.71
2019-01-24T01:55:07.069Z,1004.67
2019-01-24T01:56:07.064Z,1004.71
2019-01-24T01:57:07.053Z,1004.73
2019-01-24T01:58:07.043Z,1004.68
2019-01-24T01:59:07.053Z,1004.71
2019-01-24T02:00:07.025Z,1004.70
2019-01-24T02:01:07.003Z,1004.70
2019-01-24T02:02:06.994Z,1004.72
2019-01-24T02:03:06.981Z,1004.71
2019-01-24T02:04:07.006Z,1004.68
2019-01-24T02:05:06.967Z,1004.70
2019-01-24T02:06:06.955Z,1004.75
2019-01-24T02:07:06.952Z,1004.71
2019-01-24T02:08:06.956Z,1004.71
2019-01-24T02:09:06.940Z,1004.67
2019-01-24T02:10:06.913Z,1004.69
2019-01-24T02:11:06.903Z,1004.68
2019-01-24T02:12:06.890Z,1004.66
2019-01-24T02:13:06.876Z,1004.72
2019-01-24T02:14:06.869Z,1004.71
2019-01-24T02:15:06.885Z,1004.76
2019-01-24T02:16:06.852Z,1004.70
2019-01-24T02:17:06.875Z,1004.72
2019-01-24T02:18:06.830Z,1004.74
2019-01-24T02:19:06.823Z,1004.72
2019-01-24T02:20:06.801Z,1004.69
2019-01-24T02:21:06.829Z,1004.73
2019-01-24T02:22:06.783Z,1004.69
2019-01-24T02:23:06.769Z,1004.71
2019-01-24T02:24:06.765Z,1004.67
2019-01-24T02:25:06.753Z,1004.73
2019-01-24T02:26:06.736Z,1004.75
2019-01-24T02:27:06.753Z,1004.75
2019-01-24T02:28:06.723Z,1004.69
2019-01-24T02:29:06.735Z,1004.65
2019-01-24T02:30:06.702Z,1004.69
2019-01-24T02:31:06.689Z,1004.67
2019-01-24T02:32:06.676Z,1004.68
2019-01-24T02:33:06.668Z,1004.67
2019-01-24T02:34:06.674Z,1004.63
2019-01-24T02:35:06.642Z,1004.67
2019-01-24T02:36:06.636Z,1004.68
2019-01-24T02:37:06.630Z,1004.70
2019-01-24T02:38:06.627Z,1004.69
2019-01-24T02:39:06.624Z,1004.70
2019-01-24T02:40:06.590Z,1004.74
2019-01-24T02:41:06.581Z,1004.70
2019-01-24T02:42:06.599Z,1004.75
2019-01-24T02:43:06.567Z,1004.75
2019-01-24T02:44:06.567Z,1004.77
2019-01-24T02:45:06.536Z,1004.73
2019-01-24T02:46:06.526Z,1004.80
2019-01-24T02:47:06.538Z,1004.79
2019-01-24T02:48:06.530Z,1004.76
2019-01-24T02:49:06.501Z,1004.79
2019-01-24T02:50:06.488Z,1004.77
2019-01-24T02:51:06.481Z,1004.81
2019-01-24T02:52:06.461Z,1004.80
2019-01-24T02:53:06.479Z,1004.77
2019-01-24T02:54:06.439Z,1004.79
2019-01-24T02:55:06.431Z,1004.76
2019-01-24T02:56:06.424Z,1004.83
2019-01-24T02:57:06.415Z,1004.85
2019-01-24T02:58:06.422Z,1004.84
2019-01-24T02:59:06.388Z,1004.83
2019-01-24T03:00:06.381Z,1004.83
2019-01-24T03:01:06.395Z,1004.84
2019-01-24T03:02:06.361Z,1004.82
2019-01-24T03:03:06.373Z,1004.83
2019-01-24T03:04:06.356Z,1004.83
2019-01-24T03:05:06.322Z,1004.90
2019-01-24T03:06:06.326Z,1004.86
2019-01-24T03:07:06.443Z,1004.87
2019-01-24T03:08:06.301Z,1004.86
2019-01-24T03:09:07.175Z,1004.80
2019-01-24T03:10:06.275Z,1004.80
2019-01-24T03:11:06.289Z,1004.84
2019-01-24T03:12:06.250Z,1004.90
2019-01-24T03:13:06.239Z,1004.76
2019-01-24T03:14:06.232Z,1004.84
2019-01-24T03:15:06.222Z,1004.75
2019-01-24T03:16:06.313Z,1004.75
2019-01-24T03:17:06.197Z,1004.75
2019-01-24T03:18:06.219Z,1004.72
2019-01-24T03:19:06.180Z,1004.74
2019-01-24T03:20:06.170Z,1004.76
2019-01-24T03:21:06.193Z,1004.73
2019-01-24T03:22:06.146Z,1004.84
2019-01-24T03:23:06.140Z,1004.79
2019-01-24T03:24:06.132Z,1004.81
2019-01-24T03:25:06.161Z,1004.83
2019-01-24T03:26:06.100Z,1004.75
2019-01-24T03:27:06.092Z,1004.80
2019-01-24T03:28:06.728Z,1004.77
2019-01-24T03:29:06.076Z,1004.83
2019-01-24T03:30:06.062Z,1004.86
2019-01-24T03:31:06.091Z,1004.86
2019-01-24T03:32:06.064Z,1004.85
2019-01-24T03:33:06.031Z,1004.88
2019-01-24T03:34:06.023Z,1004.85
2019-01-24T03:35:06.011Z,1004.87
2019-01-24T03:36:05.996Z,1004.93
2019-01-24T03:37:06.011Z,1004.84
2019-01-24T03:38:05.974Z,1004.85
2019-01-24T03:39:05.966Z,1004.86
2019-01-24T03:40:05.955Z,1004.90
2019-01-24T03:41:05.948Z,1004.89
2019-01-24T03:42:05.962Z,1004.94
2019-01-24T03:43:05.950Z,1004.93
2019-01-24T03:44:05.911Z,1004.89
2019-01-24T03:45:05.896Z,1004.94
2019-01-24T03:46:05.891Z,1004.96
2019-01-24T03:47:05.890Z,1004.99
2019-01-24T03:48:05.899Z,1004.92
2019-01-24T03:49:05.858Z,1004.96
2019-01-24T03:50:05.846Z,1005.03
2019-01-24T03:51:05.836Z,1005.00
2019-01-24T03:52:05.823Z,1005.03
2019-01-24T03:53:05.815Z,1005.05
2019-01-24T03:54:05.825Z,1004.98
2019-01-24T03:55:05.793Z,1005.00
2019-01-24T03:56:05.786Z,1005.01
2019-01-24T03:57:05.779Z,1005.03
2019-01-24T03:58:05.768Z,1005.03
2019-01-24T03:59:05.779Z,1005.01
2019-01-24T04:00:05.738Z,1005.04
2019-01-24T04:01:05.728Z,1005.04
2019-01-24T04:02:05.726Z,1004.99
2019-01-24T04:03:05.716Z,1005.04
2019-01-24T04:04:05.718Z,1005.05
2019-01-24T04:05:11.747Z,1005.04
2019-01-24T04:06:06.697Z,1005.01
2019-01-24T04:07:05.666Z,1005.01
2019-01-24T04:08:05.657Z,1005.02
2019-01-24T04:09:05.649Z,1005.04
2019-01-24T04:10:05.675Z,1005.03
2019-01-24T04:11:05.629Z,1005.00
2019-01-24T04:12:05.625Z,1005.01
2019-01-24T04:13:05.600Z,1005.04
2019-01-24T04:14:05.604Z,1005.04
2019-01-24T04:15:05.579Z,1005.08
2019-01-24T04:16:05.594Z,1005.06
2019-01-24T04:17:05.564Z,1005.05
2019-01-24T04:18:05.550Z,1005.06
2019-01-24T04:19:05.538Z,1005.08
2019-01-24T04:20:05.532Z,1005.12
2019-01-24T04:21:05.554Z,1005.12
2019-01-24T04:22:05.528Z,1005.14
2019-01-24T04:23:05.503Z,1005.12
2019-01-24T04:24:05.484Z,1005.10
2019-01-24T04:25:05.477Z,1005.14
2019-01-24T04:26:05.489Z,1005.13
2019-01-24T04:27:05.454Z,1005.14
2019-01-24T04:28:05.449Z,1005.17
2019-01-24T04:29:05.440Z,1005.16
2019-01-24T04:30:05.425Z,1005.15
2019-01-24T04:31:05.448Z,1005.15
2019-01-24T04:32:05.405Z,1005.15
2019-01-24T04:33:05.388Z,1005.15
2019-01-24T04:34:05.404Z,1005.11
2019-01-24T04:35:05.374Z,1005.16
2019-01-24T04:36:05.358Z,1005.13
2019-01-24T04:37:05.414Z,1005.10
2019-01-24T04:38:05.335Z,1005.13
2019-01-24T04:39:05.325Z,1005.11
2019-01-24T04:40:05.327Z,1005.16
2019-01-24T04:41:05.312Z,1005.17
2019-01-24T04:42:05.299Z,1005.10
2019-01-24T04:43:05.320Z,1005.10
2019-01-24T04:44:05.271Z,1005.10
2019-01-24T04:45:05.264Z,1005.09
2019-01-24T04:46:05.273Z,1005.14
2019-01-24T04:47:05.240Z,1005.20
2019-01-24T04:48:05.263Z,1005.20
2019-01-24T04:49:05.226Z,1005.16
2019-01-24T04:50:05.208Z,1005.15
2019-01-24T04:51:05.197Z,1005.22
2019-01-24T04:52:05.195Z,1005.22
2019-01-24T04:53:05.222Z,1005.25
2019-01-24T04:54:05.184Z,1005.28
2019-01-24T04:55:05.162Z,1005.26
2019-01-24T04:56:05.150Z,1005.29
2019-01-24T04:57:05.161Z,1005.30
2019-01-24T04:58:05.157Z,1005.35
2019-01-24T04:59:05.129Z,1005.35
2019-01-24T05:00:05.118Z,1005.40
2019-01-24T05:01:05.135Z,1005.39
2019-01-24T05:02:05.087Z,1005.44
2019-01-24T05:03:05.099Z,1005.35
2019-01-24T05:04:05.058Z,1005.40
2019-01-24T05:05:05.050Z,1005.44
2019-01-24T05:06:05.064Z,1005.43
2019-01-24T05:07:05.036Z,1005.45
2019-01-24T05:08:05.038Z,1005.44
2019-01-24T05:09:05.015Z,1005.46
2019-01-24T05:10:05.006Z,1005.44
2019-01-24T05:11:04.984Z,1005.49
2019-01-24T05:12:04.982Z,1005.55
2019-01-24T05:13:04.994Z,1005.50
2019-01-24T05:14:04.959Z,1005.55
2019-01-24T05:15:04.974Z,1005.55
2019-01-24T05:16:04.933Z,1005.52
2019-01-24T05:17:04.922Z,1005.53
2019-01-24T05:18:04.935Z,1005.52
2019-01-24T05:19:04.900Z,1005.52
2019-01-24T05:20:04.895Z,1005.49
2019-01-24T05:21:04.885Z,1005.48
2019-01-24T05:22:04.868Z,1005.49
2019-01-24T05:23:04.878Z,1005.50
2019-01-24T05:24:04.876Z,1005.55
2019-01-24T05:25:04.849Z,1005.53
2019-01-24T05:26:04.831Z,1005.54
2019-01-24T05:27:04.825Z,1005.58
2019-01-24T05:28:04.807Z,1005.56
2019-01-24T05:29:04.824Z,1005.55
2019-01-24T05:30:04.787Z,1005.57
2019-01-24T05:31:04.778Z,1005.59
2019-01-24T05:32:04.779Z,1005.65
2019-01-24T05:33:04.767Z,1005.55
2019-01-24T05:34:04.771Z,1005.59
2019-01-24T05:35:04.736Z,1005.62
2019-01-24T05:36:04.721Z,1005.66
2019-01-24T05:37:04.710Z,1005.67
2019-01-24T05:38:04.716Z,1005.69
2019-01-24T05:39:04.725Z,1005.69
2019-01-24T05:40:04.677Z,1005.62
2019-01-24T05:41:04.671Z,1005.66
2019-01-24T05:42:04.656Z,1005.59
2019-01-24T05:43:04.647Z,1005.71
2019-01-24T05:44:04.646Z,1005.73
2019-01-24T05:45:05.342Z,1005.70
2019-01-24T05:46:04.679Z,1005.70
2019-01-24T05:47:04.951Z,1005.64
2019-01-24T05:48:04.597Z,1005.70
2019-01-24T05:49:05.336Z,1005.74
2019-01-24T05:50:04.574Z,1005.70
2019-01-24T05:51:04.666Z,1005.76
2019-01-24T05:52:04.560Z,1005.77
2019-01-24T05:53:04.615Z,1005.77
2019-01-24T05:54:04.540Z,1005.77
2019-01-24T05:55:04.597Z,1005.74
2019-01-24T05:56:04.539Z,1005.75
2019-01-24T05:57:04.579Z,1005.80
2019-01-24T05:58:04.518Z,1005.75
2019-01-24T05:59:04.516Z,1005.82
2019-01-24T06:00:04.472Z,1005.79
2019-01-24T06:01:04.563Z,1005.83
2019-01-24T06:02:04.455Z,1005.81
2019-01-24T06:03:04.442Z,1005.83
2019-01-24T06:04:04.431Z,1005.82
2019-01-24T06:05:04.477Z,1005.81
2019-01-24T06:06:04.450Z,1005.75
2019-01-24T06:07:04.472Z,1005.73
2019-01-24T06:08:04.392Z,1005.71
2019-01-24T06:09:04.378Z,1005.75
2019-01-24T06:10:04.444Z,1005.84
2019-01-24T06:11:04.363Z,1005.79
2019-01-24T06:12:04.482Z,1005.83
2019-01-24T06:13:04.342Z,1005.83
2019-01-24T06:14:04.389Z,1005.83
2019-01-24T06:15:04.318Z,1005.85
2019-01-24T06:16:04.309Z,1005.83
2019-01-24T06:17:04.301Z,1005.84
2019-01-24T06:18:04.311Z,1005.86
2019-01-24T06:19:04.365Z,1005.87
2019-01-24T06:20:04.287Z,1005.89
2019-01-24T06:21:04.249Z,1005.87
2019-01-24T06:22:04.295Z,1005.86
2019-01-24T06:23:04.259Z,1005.91
2019-01-24T06:24:04.274Z,1005.91
2019-01-24T06:25:04.221Z,1005.94
2019-01-24T06:26:04.199Z,1005.87
2019-01-24T06:27:04.191Z,1005.95
2019-01-24T06:28:04.217Z,1005.99
2019-01-24T06:29:04.186Z,1005.98
2019-01-24T06:30:04.160Z,1005.99
2019-01-24T06:31:04.153Z,1006.00
2019-01-24T06:32:04.138Z,1006.06
2019-01-24T06:33:04.154Z,1006.03
2019-01-24T06:34:04.132Z,1006.05
2019-01-24T06:35:04.104Z,1006.06
2019-01-24T06:36:04.110Z,1006.08
2019-01-24T06:37:04.097Z,1006.12
2019-01-24T06:38:04.103Z,1006.13
2019-01-24T06:39:04.184Z,1006.14
2019-01-24T06:40:04.160Z,1006.14
2019-01-24T06:41:04.080Z,1006.16
2019-01-24T06:42:04.134Z,1006.11
2019-01-24T06:43:04.092Z,1006.13
2019-01-24T06:44:04.015Z,1006.18
2019-01-24T06:45:04.001Z,1006.22
2019-01-24T06:46:03.988Z,1006.28
2019-01-24T06:47:03.974Z,1006.30
2019-01-24T06:48:03.975Z,1006.30
2019-01-24T06:49:04.026Z,1006.29
2019-01-24T06:50:03.949Z,1006.29
2019-01-24T06:51:03.935Z,1006.31
2019-01-24T06:52:03.917Z,1006.34
2019-01-24T06:53:03.909Z,1006.31
2019-01-24T06:54:03.920Z,1006.34
2019-01-24T06:55:03.886Z,1006.37
2019-01-24T06:56:03.881Z,1006.39
2019-01-24T06:57:03.873Z,1006.37
2019-01-24T06:58:03.854Z,1006.41
2019-01-24T06:59:03.881Z,1006.40
2019-01-24T07:00:03.842Z,1006.47
2019-01-24T07:01:03.872Z,1006.44
2019-01-24T07:02:03.824Z,1006.45
2019-01-24T07:03:03.823Z,1006.45
2019-01-24T07:04:03.845Z,1006.42
2019-01-24T07:05:03.789Z,1006.46
2019-01-24T07:06:03.780Z,1006.45
2019-01-24T07:07:03.767Z,1006.52
2019-01-24T07:08:03.774Z,1006.49
2019-01-24T07:09:03.763Z,1006.47
2019-01-24T07:10:03.786Z,1006.49
2019-01-24T07:11:03.732Z,1006.55
2019-01-24T07:12:03.724Z,1006.51
2019-01-24T07:13:03.976Z,1006.50
2019-01-24T07:14:03.692Z,1006.53
2019-01-24T07:15:03.720Z,1006.49
2019-01-24T07:16:03.792Z,1006.48
2019-01-24T07:17:03.702Z,1006.54
2019-01-24T07:18:03.676Z,1006.49
2019-01-24T07:19:03.647Z,1006.53
2019-01-24T07:20:03.636Z,1006.54
2019-01-24T07:21:03.658Z,1006.53
2019-01-24T07:22:03.615Z,1006.52
2019-01-24T07:23:03.603Z,1006.58
2019-01-24T07:24:03.585Z,1006.52
2019-01-24T07:25:03.573Z,1006.49
2019-01-24T07:26:03.591Z,1006.59
2019-01-24T07:27:03.555Z,1006.60
2019-01-24T07:28:03.551Z,1006.58
2019-01-24T07:29:03.578Z,1006.56
2019-01-24T07:30:03.521Z,1006.61
2019-01-24T07:31:03.516Z,1006.65
2019-01-24T07:32:03.550Z,1006.67
2019-01-24T07:33:03.536Z,1006.63
2019-01-24T07:34:03.483Z,1006.64
2019-01-24T07:35:03.476Z,1006.62
2019-01-24T07:36:03.469Z,1006.57
2019-01-24T07:37:03.448Z,1006.59
2019-01-24T07:38:03.470Z,1006.58
2019-01-24T07:39:03.429Z,1006.52
2019-01-24T07:40:03.414Z,1006.60
2019-01-24T07:41:03.430Z,1006.61
2019-01-24T07:42:03.397Z,1006.65
2019-01-24T07:43:03.433Z,1006.65
2019-01-24T07:44:03.380Z,1006.60
2019-01-24T07:45:03.455Z,1006.66
2019-01-24T07:46:03.365Z,1006.70
2019-01-24T07:47:03.339Z,1006.70
2019-01-24T07:48:03.341Z,1006.78
2019-01-24T07:49:03.350Z,1006.79
2019-01-24T07:50:03.314Z,1006.80
2019-01-24T07:51:03.299Z,1006.82
2019-01-24T07:52:03.348Z,1006.82
2019-01-24T07:53:03.278Z,1006.84
2019-01-24T07:54:03.289Z,1006.85
2019-01-24T07:55:03.256Z,1006.91
2019-01-24T07:56:03.249Z,1006.92
2019-01-24T07:57:03.249Z,1006.91
2019-01-24T07:58:03.230Z,1006.96
2019-01-24T07:59:03.288Z,1006.91
2019-01-24T08:00:03.209Z,1006.90
2019-01-24T08:01:03.203Z,1006.89
2019-01-24T08:02:03.209Z,1006.85
2019-01-24T08:03:03.192Z,1006.89
2019-01-24T08:04:03.183Z,1006.85
2019-01-24T08:05:03.155Z,1006.87
2019-01-24T08:06:08.839Z,1006.86
2019-01-24T08:07:04.132Z,1006.87
2019-01-24T08:08:03.128Z,1006.86
2019-01-24T08:09:03.166Z,1006.88
2019-01-24T08:10:03.160Z,1006.80
2019-01-24T08:11:03.095Z,1006.85
2019-01-24T08:12:03.089Z,1006.83
2019-01-24T08:13:03.063Z,1006.88
2019-01-24T08:14:03.058Z,1006.82
2019-01-24T08:15:03.087Z,1006.88
2019-01-24T08:16:03.047Z,1006.86
2019-01-24T08:17:03.035Z,1006.88
2019-01-24T08:18:03.015Z,1006.83
2019-01-24T08:19:03.004Z,1006.86
2019-01-24T08:20:02.999Z,1006.88
2019-01-24T08:21:03.009Z,1006.90
2019-01-24T08:22:02.982Z,1006.89
2019-01-24T08:23:02.964Z,1006.90
2019-01-24T08:24:02.959Z,1006.90
2019-01-24T08:25:02.940Z,1006.90
2019-01-24T08:26:02.962Z,1006.90
2019-01-24T08:27:02.918Z,1006.91
2019-01-24T08:28:02.928Z,1006.90
2019-01-24T08:29:02.899Z,1006.91
2019-01-24T08:30:02.891Z,1006.92
2019-01-24T08:31:02.891Z,1006.89
2019-01-24T08:32:02.888Z,1006.92
2019-01-24T08:33:02.859Z,1006.93
2019-01-24T08:34:02.853Z,1006.89
2019-01-24T08:35:02.835Z,1006.95
2019-01-24T08:36:02.824Z,1006.96
2019-01-24T08:37:02.839Z,1006.97
2019-01-24T08:38:02.826Z,1007.02
2019-01-24T08:39:02.785Z,1006.98
2019-01-24T08:40:02.783Z,1007.02
2019-01-24T08:41:02.771Z,1007.03
2019-01-24T08:42:02.764Z,1007.05
2019-01-24T08:43:02.775Z,1007.05
2019-01-24T08:44:02.728Z,1007.06
2019-01-24T08:45:02.727Z,1007.02
2019-01-24T08:46:02.736Z,1006.98
2019-01-24T08:47:02.715Z,1006.97
2019-01-24T08:48:02.739Z,1007.07
2019-01-24T08:49:02.687Z,1007.04
2019-01-24T08:50:02.673Z,1007.06
2019-01-24T08:51:02.760Z,1007.10
2019-01-24T08:52:02.655Z,1007.10
2019-01-24T08:53:02.651Z,1007.12
2019-01-24T08:54:02.659Z,1007.13
2019-01-24T08:55:02.625Z,1007.13
2019-01-24T08:56:02.612Z,1007.09
2019-01-24T08:57:02.600Z,1007.05
2019-01-24T08:58:02.620Z,1007.06
2019-01-24T08:59:02.571Z,1007.04
2019-01-24T09:00:02.568Z,1007.04
2019-01-24T09:01:02.564Z,1007.07
2019-01-24T09:02:02.595Z,1007.02
2019-01-24T09:03:03.290Z,1007.06
2019-01-24T09:04:02.553Z,1007.05
2019-01-24T09:05:02.529Z,1007.06
2019-01-24T09:06:02.511Z,1007.04
2019-01-24T09:07:02.504Z,1007.11
2019-01-24T09:08:02.489Z,1007.12
2019-01-24T09:09:02.512Z,1007.16
2019-01-24T09:10:02.457Z,1007.11
2019-01-24T09:11:02.453Z,1007.15
2019-01-24T09:12:02.447Z,1007.12
2019-01-24T09:13:02.435Z,1007.12
2019-01-24T09:14:02.426Z,1007.15
2019-01-24T09:15:02.447Z,1007.07
2019-01-24T09:16:02.445Z,1007.12
2019-01-24T09:17:02.394Z,1007.07
2019-01-24T09:18:02.379Z,1007.14
2019-01-24T09:19:02.365Z,1007.18
2019-01-24T09:20:02.371Z,1007.09
2019-01-24T09:21:02.383Z,1007.16
2019-01-24T09:22:02.374Z,1007.15
2019-01-24T09:23:02.334Z,1007.16
2019-01-24T09:24:02.325Z,1007.08
2019-01-24T09:25:02.306Z,1007.22
2019-01-24T09:26:02.336Z,1007.20
2019-01-24T09:27:02.292Z,1007.13
2019-01-24T09:28:02.269Z,1007.08
2019-01-24T09:29:02.261Z,1007.11
2019-01-24T09:30:02.272Z,1007.09
2019-01-24T09:31:02.250Z,1007.10
2019-01-24T09:32:02.261Z,1007.07
2019-01-24T09:33:02.224Z,1007.13
2019-01-24T09:34:02.224Z,1007.10
2019-01-24T09:35:02.207Z,1007.11
2019-01-24T09:36:02.183Z,1007.10
2019-01-24T09:37:02.216Z,1007.15
2019-01-24T09:38:02.178Z,1007.12
2019-01-24T09:39:02.173Z,1007.14
2019-01-24T09:40:02.149Z,1007.17
2019-01-24T09:41:02.137Z,1007.16
2019-01-24T09:42:02.119Z,1007.14
2019-01-24T09:43:02.388Z,1007.15
2019-01-24T09:44:02.115Z,1007.20
2019-01-24T09:45:02.094Z,1007.22
2019-01-24T09:46:02.089Z,1007.24
2019-01-24T09:47:02.079Z,1007.21
2019-01-24T09:48:02.059Z,1007.22
2019-01-24T09:49:02.076Z,1007.21
2019-01-24T09:50:02.048Z,1007.19
2019-01-24T09:51:02.030Z,1007.24
2019-01-24T09:52:02.084Z,1007.18
2019-01-24T09:53:02.008Z,1007.22
2019-01-24T09:54:02.021Z,1007.20
2019-01-24T09:55:03.366Z,1007.21
2019-01-24T09:56:01.978Z,1007.22
2019-01-24T09:57:01.970Z,1007.22
2019-01-24T09:58:01.957Z,1007.18
2019-01-24T09:59:01.985Z,1007.20
2019-01-24T10:00:01.937Z,1007.21
2019-01-24T10:01:01.923Z,1007.25
2019-01-24T10:02:01.905Z,1007.25
2019-01-24T10:03:01.897Z,1007.24
2019-01-24T10:04:01.916Z,1007.22
2019-01-24T10:05:01.889Z,1007.26
2019-01-24T10:06:01.901Z,1007.28
2019-01-24T10:07:01.868Z,1007.22
2019-01-24T10:08:01.850Z,1007.26
2019-01-24T10:09:01.873Z,1007.29
2019-01-24T10:10:01.840Z,1007.34
2019-01-24T10:11:01.822Z,1007.27
2019-01-24T10:12:01.810Z,1007.30
2019-01-24T10:13:01.800Z,1007.26
2019-01-24T10:14:01.787Z,1007.25
2019-01-24T10:15:01.807Z,1007.25
2019-01-24T10:16:01.765Z,1007.24
2019-01-24T10:17:01.758Z,1007.28
2019-01-24T10:18:01.751Z,1007.27
2019-01-24T10:19:01.740Z,1007.26
2019-01-24T10:20:01.757Z,1007.25
2019-01-24T10:21:01.713Z,1007.22
2019-01-24T10:22:01.703Z,1007.23
2019-01-24T10:23:01.713Z,1007.23
2019-01-24T10:24:01.732Z,1007.26
2019-01-24T10:25:01.678Z,1007.30
2019-01-24T10:26:01.683Z,1007.31
2019-01-24T10:27:01.646Z,1007.29
2019-01-24T10:28:01.655Z,1007.32
2019-01-24T10:29:01.628Z,1007.34
2019-01-24T10:30:01.632Z,1007.32
2019-01-24T10:31:01.650Z,1007.35
2019-01-24T10:32:01.596Z,1007.35
2019-01-24T10:33:01.582Z,1007.40
2019-01-24T10:34:01.587Z,1007.41
2019-01-24T10:35:01.566Z,1007.39
2019-01-24T10:36:01.565Z,1007.39
2019-01-24T10:37:01.809Z,1007.43
2019-01-24T10:38:01.533Z,1007.40
2019-01-24T10:39:01.522Z,1007.40
2019-01-24T10:40:01.505Z,1007.43
2019-01-24T10:41:01.492Z,1007.45
2019-01-24T10:42:01.540Z,1007.46
2019-01-24T10:43:01.486Z,1007.44
2019-01-24T10:44:01.545Z,1007.43
2019-01-24T10:45:01.485Z,1007.47
2019-01-24T10:46:01.497Z,1007.47
2019-01-24T10:47:01.436Z,1007.42
2019-01-24T10:48:01.573Z,1007.39
2019-01-24T10:49:01.417Z,1007.39
2019-01-24T10:50:01.412Z,1007.40
2019-01-24T10:51:01.398Z,1007.41
2019-01-24T10:52:01.380Z,1007.39
2019-01-24T10:53:01.367Z,1007.42
2019-01-24T10:54:01.391Z,1007.37
2019-01-24T10:55:01.355Z,1007.42
2019-01-24T10:56:01.338Z,1007.38
2019-01-24T10:57:01.367Z,1007.44
2019-01-24T10:58:01.316Z,1007.38
2019-01-24T10:59:01.326Z,1007.36
2019-01-24T11:00:01.307Z,1007.41
2019-01-24T11:01:01.293Z,1007.35
2019-01-24T11:02:02.870Z,1007.32
2019-01-24T11:03:01.268Z,1007.31
2019-01-24T11:04:01.294Z,1007.34
2019-01-24T11:05:01.240Z,1007.38
2019-01-24T11:06:01.229Z,1007.33
2019-01-24T11:07:01.232Z,1007.33
2019-01-24T11:08:01.214Z,1007.33
2019-01-24T11:09:01.204Z,1007.33
2019-01-24T11:10:01.214Z,1007.34
2019-01-24T11:11:01.181Z,1007.33
2019-01-24T11:12:01.166Z,1007.31
2019-01-24T11:13:01.154Z,1007.36
2019-01-24T11:14:01.154Z,1007.36
2019-01-24T11:15:01.170Z,1007.32
2019-01-24T11:16:01.128Z,1007.36
2019-01-24T11:17:01.116Z,1007.38
2019-01-24T11:18:01.134Z,1007.38
2019-01-24T11:19:01.099Z,1007.41
2019-01-24T11:20:01.117Z,1007.46
2019-01-24T11:21:01.109Z,1007.41
2019-01-24T11:22:01.061Z,1007.45
2019-01-24T11:23:01.060Z,1007.45
2019-01-24T11:24:01.040Z,1007.41
2019-01-24T11:25:01.025Z,1007.42
2019-01-24T11:26:01.040Z,1007.43
2019-01-24T11:27:01.006Z,1007.40
2019-01-24T11:28:01.015Z,1007.39
2019-01-24T11:29:00.999Z,1007.39
2019-01-24T11:30:00.980Z,1007.38
2019-01-24T11:31:00.995Z,1007.39
2019-01-24T11:32:00.963Z,1007.44
2019-01-24T11:33:00.945Z,1007.40
2019-01-24T11:34:00.941Z,1007.37
2019-01-24T11:35:00.939Z,1007.38
2019-01-24T11:36:00.942Z,1007.40
2019-01-24T11:37:00.898Z,1007.38
2019-01-24T11:38:00.889Z,1007.38
2019-01-24T11:39:00.889Z,1007.39
2019-01-24T11:40:00.883Z,1007.44
2019-01-24T11:41:00.893Z,1007.39
2019-01-24T11:42:00.855Z,1007.39
2019-01-24T11:43:00.841Z,1007.38
2019-01-24T11:44:00.865Z,1007.32
2019-01-24T11:45:00.830Z,1007.34
2019-01-24T11:46:01.341Z,1007.39
2019-01-24T11:47:00.818Z,1007.35
2019-01-24T11:48:00.829Z,1007.43
2019-01-24T11:49:00.771Z,1007.41
2019-01-24T11:50:00.890Z,1007.48
2019-01-24T11:51:00.752Z,1007.45
2019-01-24T11:52:00.798Z,1007.43
2019-01-24T11:53:00.739Z,1007.38
2019-01-24T11:54:00.733Z,1007.40
2019-01-24T11:55:00.720Z,1007.38
2019-01-24T11:56:00.732Z,1007.36
2019-01-24T11:57:00.697Z,1007.37
2019-01-24T11:58:00.679Z,1007.36
2019-01-24T11:59:00.678Z,1007.40
2019-01-24T12:00:00.662Z,1007.37
2019-01-24T12:01:00.651Z,1007.43
2019-01-24T12:02:09.238Z,1007.44
2019-01-24T12:03:00.622Z,1007.45
2019-01-24T12:04:00.611Z,1007.44
2019-01-24T12:05:00.613Z,1007.36